Saint-Simon-De-Rimouski, Canada
Current Conditions -  °F | °C
As of 3:00 PM on Sunday 25 Jan 2015 (Local Time) from CYYY Reporting Station
Moderate Snow Moderate Snow  
Wind Chill: -13°   Ceiling: 400
Heat Index:   Visibility: 0.37mi
Dew Point:   Wind: 26mph
Humidity: 85%   Direction: 260°W
Pressure: 29.36"   Gusts: 35mph
Location:  48.2°N, 69.02°W
Report Text: CYYY 252000Z 26023G30KT 3/8SM SN BLSN VV004 M13/M15 A2936 RMK SN8 SLP947
Loading
Personal Weather Stations






























Interactive Weather Map New forecast layout! Learn more

10-Day Weather Forecast

Advertisements
Track Severe Weather on mobile